Αναφορές METAR Αεροδρομίων

 

LGTS - THESSALONIKI - GREECE
Ενημερώθηκε: 27/06/2019 13:20
Αραιές Νεφώσεις
Αραιές Νεφώσεις
 Ανεμος από Δ
Ανεμος: Δ 13 km/h
Θερμοκρασία: 31°C
Δείκτης θερμότητας: 36°C
Σημ. Δρόσου: 23°C
Υγρασία: 62%
Βαρόμετρο: 1015 hPa
Clouds: Αραιές Νεφώσεις
Visibility: 10 km
Cloud details: Αραιές Νεφώσεις 762 m
2019/06/27 10:20 LGTS 271020Z 28007KT 9999 FEW025 31/23 Q1015 NOSIG
LGLR - LARTISA - GREECE
Ενημερώθηκε: 27/06/2019 12:50
Μερικώς νεφελώδης
Μερικώς νεφελώδης
 Ανεμος από Α
Ανεμος: Α 24 km/h
Θερμοκρασία: 33°C
Σημ. Δρόσου: 13°C
Υγρασία: 30%
Βαρόμετρο: 1016 hPa
Clouds: Μερικώς νεφελώδης
Visibility: 10 km
Cloud details: Αραιές Νεφώσεις 914 m
Μερικώς νεφελώδης 2438 m
2019/06/27 09:50 LGLR 270950Z 08013KT 9999 FEW030 SCT080 33/13 Q1016 BLU
 
LGKZ - KOZANI - GREECE
Ενημερώθηκε: 27/06/2019 12:50
Μερικώς νεφελώδης
Μερικώς νεφελώδης
 Ανεμος από ΒΑ
Ανεμος: ΒΑ 11 km/h
Θερμοκρασία: 28°C
Δείκτης θερμότητας: 27°C
Σημ. Δρόσου: 13°C
Υγρασία: 40%
Βαρόμετρο: 1020 hPa
Clouds: Μερικώς νεφελώδης
Visibility: 10 km
Cloud details: Αραιές Νεφώσεις 762 m
Μερικώς νεφελώδης 2134 m
2019/06/27 09:50 LGKZ 270950Z 04006KT 9999 FEW025 SCT070 28/13 Q1020
LGKV - KAVALA - GREECE
Ενημερώθηκε: 27/06/2019 13:20
Αραιές Νεφώσεις
Αραιές Νεφώσεις
 Ανεμος από Α
Ανεμος: Α 20 km/h
Θερμοκρασία: 32°C
Σημ. Δρόσου: 16°C
Υγρασία: 38%
Βαρόμετρο: 1014 hPa
Clouds: Αραιές Νεφώσεις
Visibility: 10 km
Cloud details: Αραιές Νεφώσεις 762 m
2019/06/27 10:20 LGKV 271020Z 08011KT 9999 FEW025 32/16 Q1014
 
LGIO - IOANNINA - GREECE
Ενημερώθηκε: 27/06/2019 12:50
Αραιές Νεφώσεις
Αραιές Νεφώσεις
 Ανεμος από varies
Ανεμος: varies 0 km/h
Θερμοκρασία: 29°C
Δείκτης θερμότητας: 28°C
Σημ. Δρόσου: 14°C
Υγρασία: 40%
Βαρόμετρο: 1017 hPa
Clouds: Αραιές Νεφώσεις
Visibility: 10 km
Cloud details: Αραιές Νεφώσεις 762 m
2019/06/27 09:50 LGIO 270950Z /////KT 9999 FEW025 29/14 Q1017
LGBL - BOLOS - GREECE
Ενημερώθηκε: 27/06/2019 13:20
Αραιές Νεφώσεις
Αραιές Νεφώσεις
 Ανεμος από ΝΑ
Ανεμος: ΝΑ 15 km/h
Θερμοκρασία: 32°C
Σημ. Δρόσου: 13°C
Υγρασία: 31%
Βαρόμετρο: 1015 hPa
Clouds: Αραιές Νεφώσεις
Visibility: 10 km
Cloud details: Αραιές Νεφώσεις 914 m
2019/06/27 10:20 LGBL 271020Z 13008KT 9999 FEW030 32/13 Q1015
 
LGMT - MITILINI - GREECE
Ενημερώθηκε: 27/06/2019 13:20
Αίθριος
Αίθριος
 Ανεμος από ΒΒΔ
Ανεμος: ΒΒΔ 19 km/h
Θερμοκρασία: 30°C
Δείκτης θερμότητας: 33°C
Σημ. Δρόσου: 21°C
Υγρασία: 59%
Βαρόμετρο: 1011 hPa
Περίληψη: Αίθριος
Visibility: greater than 10 km
2019/06/27 10:20 LGMT 271020Z 33010KT 290V010 CAVOK 30/21 Q1011
LGAV - ATHENS - GREECE
Ενημερώθηκε: 27/06/2019 13:20
Μερικώς νεφελώδης
Μερικώς νεφελώδης
 Ανεμος από Β
Ανεμος: Β 30 km/h
Θερμοκρασία: 30°C
Δείκτης θερμότητας: 31°C
Σημ. Δρόσου: 17°C
Υγρασία: 46%
Βαρόμετρο: 1014 hPa
Clouds: Μερικώς νεφελώδης
Visibility: 10 km
Cloud details: Μερικώς νεφελώδης 914 m
2019/06/27 10:20 LGAV 271020Z 36016KT 9999 SCT030 30/17 Q1014 NOSIG
 
LGRP - RODOS - GREECE
Ενημερώθηκε: 27/06/2019 13:20
Αίθριος
Αίθριος
 Ανεμος από ΔΝΔ
Ανεμος: ΔΝΔ 19 km/h
Θερμοκρασία: 31°C
Δείκτης θερμότητας: 35°C
Σημ. Δρόσου: 22°C
Υγρασία: 59%
Βαρόμετρο: 1007 hPa
Περίληψη: Αίθριος
Visibility: greater than 10 km
2019/06/27 10:20 LGRP 271020Z 25010KT CAVOK 31/22 Q1007 NOSIG
LGIR - HRAKLIO/KRITI - GREECE
Ενημερώθηκε: 27/06/2019 13:20
Αραιές Νεφώσεις
Αραιές Νεφώσεις
 Ανεμος από ΔΒΔ
Ανεμος: ΔΒΔ 33 km/h
Θερμοκρασία: 28°C
Δείκτης θερμότητας: 30°C
Σημ. Δρόσου: 22°C
Υγρασία: 70%
Βαρόμετρο: 1012 hPa
Clouds: Αραιές Νεφώσεις
Visibility: 10 km
Cloud details: Αραιές Νεφώσεις 610 m
2019/06/27 10:20 LGIR 271020Z 30018KT 9999 FEW020 28/22 Q1012 NOSIG
 
LGMK - MIKONOS - GREECE
Ενημερώθηκε: 27/06/2019 13:20
Αραιές Νεφώσεις
Αραιές Νεφώσεις
 Ανεμος από ΒΒΔ
Ανεμος: ΒΒΔ 37 km/h, Ριπή: 56 km/h
Θερμοκρασία: 27°C
Δείκτης θερμότητας: 28°C
Σημ. Δρόσου: 19°C
Υγρασία: 62%
Βαρόμετρο: 1011 hPa
Clouds: Αραιές Νεφώσεις
Visibility: 10 km
Cloud details: Αραιές Νεφώσεις 244 m
2019/06/27 10:20 LGMK 271020Z 34020G30KT 9999 FEW008 27/19 Q1011
LGKR - KERKIRA - GREECE
Ενημερώθηκε: 27/06/2019 13:20
Αραιές Νεφώσεις
Αραιές Νεφώσεις
 Ανεμος από ΝΝΑ
Ανεμος: ΝΝΑ 11 km/h
Θερμοκρασία: 33°C
Δείκτης θερμότητας: 34°C
Σημ. Δρόσου: 19°C
Υγρασία: 44%
Βαρόμετρο: 1014 hPa
Clouds: Αραιές Νεφώσεις
Visibility: 10 km
Cloud details: Αραιές Νεφώσεις 762 m
2019/06/27 10:20 LGKR 271020Z 16006KT 9999 FEW025 33/19 Q1014 NOSIG